sensor_id;sensor_type;location;lat;lon;timestamp;P1;durP1;ratioP1;P2;durP2;ratioP2
79074;SDS011;68476;42.710;23.388;2024-01-15T00:00:37;34.70;;;18.08;;
79074;SDS011;68476;42.710;23.388;2024-01-15T00:03:06;35.25;;;18.63;;
79074;SDS011;68476;42.710;23.388;2024-01-15T00:05:32;46.05;;;23.58;;
79074;SDS011;68476;42.710;23.388;2024-01-15T00:07:57;38.88;;;18.38;;
79074;SDS011;68476;42.710;23.388;2024-01-15T00:10:23;39.65;;;20.88;;
79074;SDS011;68476;42.710;23.388;2024-01-15T00:12:49;32.53;;;17.55;;
79074;SDS011;68476;42.710;23.388;2024-01-15T00:15:14;37.65;;;19.85;;
79074;SDS011;68476;42.710;23.388;2024-01-15T00:17:40;38.83;;;22.25;;
79074;SDS011;68476;42.710;23.388;2024-01-15T00:20:06;33.70;;;19.17;;
79074;SDS011;68476;42.710;23.388;2024-01-15T00:22:32;38.10;;;20.60;;
79074;SDS011;68476;42.710;23.388;2024-01-15T00:24:58;44.28;;;22.05;;
79074;SDS011;68476;42.710;23.388;2024-01-15T00:27:23;47.97;;;23.05;;
79074;SDS011;68476;42.710;23.388;2024-01-15T00:29:49;33.70;;;20.02;;
79074;SDS011;68476;42.710;23.388;2024-01-15T00:32:16;35.03;;;20.40;;
79074;SDS011;68476;42.710;23.388;2024-01-15T00:34:42;48.90;;;24.58;;
79074;SDS011;68476;42.710;23.388;2024-01-15T00:37:07;36.95;;;21.13;;
79074;SDS011;68476;42.710;23.388;2024-01-15T00:39:33;52.20;;;25.92;;
79074;SDS011;68476;42.710;23.388;2024-01-15T00:41:58;34.88;;;17.52;;
79074;SDS011;68476;42.710;23.388;2024-01-15T00:44:24;35.75;;;17.05;;
79074;SDS011;68476;42.710;23.388;2024-01-15T00:46:50;32.80;;;17.38;;
79074;SDS011;68476;42.710;23.388;2024-01-15T00:49:15;38.53;;;22.35;;
79074;SDS011;68476;42.710;23.388;2024-01-15T00:51:41;38.70;;;19.20;;
79074;SDS011;68476;42.710;23.388;2024-01-15T00:54:07;32.00;;;18.45;;
79074;SDS011;68476;42.710;23.388;2024-01-15T00:56:32;36.08;;;18.45;;
79074;SDS011;68476;42.710;23.388;2024-01-15T00:58:58;33.03;;;18.55;;
79074;SDS011;68476;42.710;23.388;2024-01-15T01:01:24;33.55;;;19.45;;
79074;SDS011;68476;42.710;23.388;2024-01-15T01:03:50;33.20;;;18.58;;
79074;SDS011;68476;42.710;23.388;2024-01-15T01:06:15;33.25;;;18.55;;
79074;SDS011;68476;42.710;23.388;2024-01-15T01:08:41;31.67;;;20.17;;
79074;SDS011;68476;42.710;23.388;2024-01-15T01:11:06;21.80;;;13.70;;
79074;SDS011;68476;42.710;23.388;2024-01-15T01:13:32;31.20;;;18.90;;
79074;SDS011;68476;42.710;23.388;2024-01-15T01:15:58;38.65;;;21.52;;
79074;SDS011;68476;42.710;23.388;2024-01-15T01:18:23;35.63;;;20.35;;
79074;SDS011;68476;42.710;23.388;2024-01-15T01:20:49;43.05;;;20.67;;
79074;SDS011;68476;42.710;23.388;2024-01-15T01:23:14;33.97;;;19.30;;
79074;SDS011;68476;42.710;23.388;2024-01-15T01:25:40;32.90;;;18.58;;
79074;SDS011;68476;42.710;23.388;2024-01-15T01:28:05;50.47;;;22.65;;
79074;SDS011;68476;42.710;23.388;2024-01-15T01:30:31;35.20;;;17.52;;
79074;SDS011;68476;42.710;23.388;2024-01-15T01:32:56;45.78;;;22.90;;
79074;SDS011;68476;42.710;23.388;2024-01-15T01:35:22;50.83;;;25.20;;
79074;SDS011;68476;42.710;23.388;2024-01-15T01:37:48;56.17;;;25.33;;
79074;SDS011;68476;42.710;23.388;2024-01-15T01:40:13;34.10;;;19.08;;
79074;SDS011;68476;42.710;23.388;2024-01-15T01:42:39;41.80;;;24.33;;
79074;SDS011;68476;42.710;23.388;2024-01-15T01:45:04;35.70;;;20.08;;
79074;SDS011;68476;42.710;23.388;2024-01-15T01:47:30;15.85;;;11.48;;
79074;SDS011;68476;42.710;23.388;2024-01-15T01:49:57;38.85;;;19.17;;
79074;SDS011;68476;42.710;23.388;2024-01-15T01:52:22;15.75;;;12.88;;
79074;SDS011;68476;42.710;23.388;2024-01-15T01:54:49;14.85;;;8.98;;
79074;SDS011;68476;42.710;23.388;2024-01-15T01:57:16;26.42;;;15.45;;
79074;SDS011;68476;42.710;23.388;2024-01-15T01:59:42;22.27;;;12.13;;
79074;SDS011;68476;42.710;23.388;2024-01-15T02:02:08;29.13;;;16.80;;
79074;SDS011;68476;42.710;23.388;2024-01-15T02:04:33;21.52;;;11.55;;
79074;SDS011;68476;42.710;23.388;2024-01-15T02:07:01;21.92;;;14.25;;
79074;SDS011;68476;42.710;23.388;2024-01-15T02:09:27;32.60;;;18.85;;
79074;SDS011;68476;42.710;23.388;2024-01-15T02:11:53;32.83;;;16.58;;
79074;SDS011;68476;42.710;23.388;2024-01-15T02:14:18;24.42;;;14.73;;
79074;SDS011;68476;42.710;23.388;2024-01-15T02:16:44;16.10;;;11.30;;
79074;SDS011;68476;42.710;23.388;2024-01-15T02:19:16;24.55;;;15.50;;
79074;SDS011;68476;42.710;23.388;2024-01-15T02:21:42;20.35;;;11.88;;
79074;SDS011;68476;42.710;23.388;2024-01-15T02:24:08;33.03;;;17.55;;
79074;SDS011;68476;42.710;23.388;2024-01-15T02:26:33;33.67;;;16.90;;
79074;SDS011;68476;42.710;23.388;2024-01-15T02:29:03;28.40;;;14.48;;
79074;SDS011;68476;42.710;23.388;2024-01-15T02:31:29;38.15;;;21.35;;
79074;SDS011;68476;42.710;23.388;2024-01-15T02:33:55;29.20;;;16.50;;
79074;SDS011;68476;42.710;23.388;2024-01-15T02:36:20;28.13;;;16.33;;
79074;SDS011;68476;42.710;23.388;2024-01-15T02:38:46;26.52;;;15.30;;
79074;SDS011;68476;42.710;23.388;2024-01-15T02:41:11;39.25;;;22.30;;
79074;SDS011;68476;42.710;23.388;2024-01-15T02:43:39;31.15;;;16.50;;
79074;SDS011;68476;42.710;23.388;2024-01-15T02:46:05;28.33;;;13.45;;
79074;SDS011;68476;42.710;23.388;2024-01-15T02:48:31;30.67;;;16.77;;
79074;SDS011;68476;42.710;23.388;2024-01-15T02:50:56;24.02;;;14.32;;
79074;SDS011;68476;42.710;23.388;2024-01-15T02:53:22;29.10;;;15.35;;
79074;SDS011;68476;42.710;23.388;2024-01-15T02:55:47;30.10;;;13.95;;
79074;SDS011;68476;42.710;23.388;2024-01-15T02:58:13;21.55;;;12.38;;
79074;SDS011;68476;42.710;23.388;2024-01-15T03:00:39;23.00;;;12.60;;
79074;SDS011;68476;42.710;23.388;2024-01-15T03:03:05;22.45;;;12.70;;
79074;SDS011;68476;42.710;23.388;2024-01-15T03:05:30;21.23;;;13.27;;
79074;SDS011;68476;42.710;23.388;2024-01-15T03:07:56;22.40;;;12.93;;
79074;SDS011;68476;42.710;23.388;2024-01-15T03:10:21;20.67;;;11.75;;
79074;SDS011;68476;42.710;23.388;2024-01-15T03:12:47;20.83;;;12.45;;
79074;SDS011;68476;42.710;23.388;2024-01-15T03:15:12;22.00;;;13.35;;
79074;SDS011;68476;42.710;23.388;2024-01-15T03:17:38;22.20;;;13.43;;
79074;SDS011;68476;42.710;23.388;2024-01-15T03:20:03;23.83;;;13.63;;
79074;SDS011;68476;42.710;23.388;2024-01-15T03:22:29;21.50;;;12.18;;
79074;SDS011;68476;42.710;23.388;2024-01-15T03:24:55;22.98;;;12.48;;
79074;SDS011;68476;42.710;23.388;2024-01-15T03:27:20;20.08;;;10.73;;
79074;SDS011;68476;42.710;23.388;2024-01-15T03:29:46;20.02;;;11.30;;
79074;SDS011;68476;42.710;23.388;2024-01-15T03:32:11;21.48;;;10.55;;
79074;SDS011;68476;42.710;23.388;2024-01-15T03:34:37;25.15;;;11.73;;
79074;SDS011;68476;42.710;23.388;2024-01-15T03:37:02;19.83;;;11.13;;
79074;SDS011;68476;42.710;23.388;2024-01-15T03:39:28;12.93;;;8.18;;
79074;SDS011;68476;42.710;23.388;2024-01-15T03:41:54;17.45;;;10.05;;
79074;SDS011;68476;42.710;23.388;2024-01-15T03:44:20;17.58;;;10.52;;
79074;SDS011;68476;42.710;23.388;2024-01-15T03:46:45;19.20;;;9.75;;
79074;SDS011;68476;42.710;23.388;2024-01-15T03:49:11;17.23;;;11.10;;
79074;SDS011;68476;42.710;23.388;2024-01-15T03:51:37;22.35;;;11.48;;
79074;SDS011;68476;42.710;23.388;2024-01-15T03:54:02;17.55;;;10.70;;
79074;SDS011;68476;42.710;23.388;2024-01-15T03:56:28;19.08;;;11.30;;
79074;SDS011;68476;42.710;23.388;2024-01-15T03:58:53;18.42;;;10.00;;
79074;SDS011;68476;42.710;23.388;2024-01-15T04:01:19;23.35;;;11.30;;
79074;SDS011;68476;42.710;23.388;2024-01-15T04:03:45;22.17;;;11.82;;
79074;SDS011;68476;42.710;23.388;2024-01-15T04:06:10;20.27;;;11.25;;
79074;SDS011;68476;42.710;23.388;2024-01-15T04:08:35;16.40;;;9.93;;
79074;SDS011;68476;42.710;23.388;2024-01-15T04:11:01;18.88;;;11.25;;
79074;SDS011;68476;42.710;23.388;2024-01-15T04:13:27;19.95;;;11.70;;
79074;SDS011;68476;42.710;23.388;2024-01-15T04:15:52;21.50;;;12.15;;
79074;SDS011;68476;42.710;23.388;2024-01-15T04:18:18;25.33;;;10.52;;
79074;SDS011;68476;42.710;23.388;2024-01-15T04:20:44;19.77;;;10.15;;
79074;SDS011;68476;42.710;23.388;2024-01-15T04:23:09;22.10;;;12.10;;
79074;SDS011;68476;42.710;23.388;2024-01-15T04:25:35;20.27;;;12.00;;
79074;SDS011;68476;42.710;23.388;2024-01-15T04:28:01;27.60;;;11.57;;
79074;SDS011;68476;42.710;23.388;2024-01-15T04:30:26;24.58;;;12.35;;
79074;SDS011;68476;42.710;23.388;2024-01-15T04:32:52;23.10;;;12.85;;
79074;SDS011;68476;42.710;23.388;2024-01-15T04:35:17;22.20;;;10.82;;
79074;SDS011;68476;42.710;23.388;2024-01-15T04:37:42;25.77;;;12.60;;
79074;SDS011;68476;42.710;23.388;2024-01-15T04:40:08;22.42;;;12.05;;
79074;SDS011;68476;42.710;23.388;2024-01-15T04:42:34;18.08;;;11.10;;
79074;SDS011;68476;42.710;23.388;2024-01-15T04:45:00;21.85;;;11.85;;
79074;SDS011;68476;42.710;23.388;2024-01-15T04:47:25;21.30;;;10.90;;
79074;SDS011;68476;42.710;23.388;2024-01-15T04:49:51;18.35;;;11.55;;
79074;SDS011;68476;42.710;23.388;2024-01-15T04:52:16;21.25;;;11.45;;
79074;SDS011;68476;42.710;23.388;2024-01-15T04:54:42;28.80;;;12.38;;
79074;SDS011;68476;42.710;23.388;2024-01-15T04:57:07;19.05;;;10.77;;
79074;SDS011;68476;42.710;23.388;2024-01-15T04:59:33;22.13;;;12.95;;
79074;SDS011;68476;42.710;23.388;2024-01-15T05:01:58;19.65;;;12.40;;
79074;SDS011;68476;42.710;23.388;2024-01-15T05:04:24;18.30;;;11.90;;
79074;SDS011;68476;42.710;23.388;2024-01-15T05:06:50;22.55;;;12.75;;
79074;SDS011;68476;42.710;23.388;2024-01-15T05:09:15;21.30;;;12.88;;
79074;SDS011;68476;42.710;23.388;2024-01-15T05:11:41;24.20;;;11.93;;
79074;SDS011;68476;42.710;23.388;2024-01-15T05:14:06;23.35;;;13.88;;
79074;SDS011;68476;42.710;23.388;2024-01-15T05:16:32;21.52;;;12.93;;
79074;SDS011;68476;42.710;23.388;2024-01-15T05:18:57;19.20;;;10.48;;
79074;SDS011;68476;42.710;23.388;2024-01-15T05:21:23;25.17;;;13.13;;
79074;SDS011;68476;42.710;23.388;2024-01-15T05:23:48;29.98;;;14.20;;
79074;SDS011;68476;42.710;23.388;2024-01-15T05:26:13;24.80;;;14.10;;
79074;SDS011;68476;42.710;23.388;2024-01-15T05:28:41;26.23;;;14.05;;
79074;SDS011;68476;42.710;23.388;2024-01-15T05:31:07;21.42;;;14.10;;
79074;SDS011;68476;42.710;23.388;2024-01-15T05:33:33;24.05;;;13.50;;
79074;SDS011;68476;42.710;23.388;2024-01-15T05:35:59;23.13;;;13.45;;
79074;SDS011;68476;42.710;23.388;2024-01-15T05:38:24;22.80;;;14.10;;
79074;SDS011;68476;42.710;23.388;2024-01-15T05:40:50;26.10;;;15.05;;
79074;SDS011;68476;42.710;23.388;2024-01-15T05:43:15;21.70;;;14.07;;
79074;SDS011;68476;42.710;23.388;2024-01-15T05:45:42;25.05;;;13.95;;
79074;SDS011;68476;42.710;23.388;2024-01-15T05:48:08;20.95;;;11.55;;
79074;SDS011;68476;42.710;23.388;2024-01-15T05:50:34;23.83;;;15.02;;
79074;SDS011;68476;42.710;23.388;2024-01-15T05:53:00;25.05;;;14.70;;
79074;SDS011;68476;42.710;23.388;2024-01-15T05:55:25;25.95;;;14.13;;
79074;SDS011;68476;42.710;23.388;2024-01-15T05:57:51;24.95;;;14.77;;
79074;SDS011;68476;42.710;23.388;2024-01-15T06:00:16;25.98;;;15.02;;
79074;SDS011;68476;42.710;23.388;2024-01-15T06:02:42;27.48;;;15.27;;
79074;SDS011;68476;42.710;23.388;2024-01-15T06:05:07;32.45;;;18.58;;
79074;SDS011;68476;42.710;23.388;2024-01-15T06:07:34;15.10;;;9.35;;
79074;SDS011;68476;42.710;23.388;2024-01-15T06:10:00;34.55;;;18.15;;
79074;SDS011;68476;42.710;23.388;2024-01-15T06:12:27;32.42;;;16.30;;
79074;SDS011;68476;42.710;23.388;2024-01-15T06:14:53;24.73;;;14.65;;
79074;SDS011;68476;42.710;23.388;2024-01-15T06:17:18;26.65;;;16.00;;
79074;SDS011;68476;42.710;23.388;2024-01-15T06:19:44;25.02;;;15.68;;
79074;SDS011;68476;42.710;23.388;2024-01-15T06:22:09;28.42;;;15.48;;
79074;SDS011;68476;42.710;23.388;2024-01-15T06:24:35;35.42;;;17.23;;
79074;SDS011;68476;42.710;23.388;2024-01-15T06:27:00;27.92;;;17.23;;
79074;SDS011;68476;42.710;23.388;2024-01-15T06:29:26;36.80;;;21.80;;
79074;SDS011;68476;42.710;23.388;2024-01-15T06:31:54;31.83;;;18.45;;
79074;SDS011;68476;42.710;23.388;2024-01-15T06:34:20;39.15;;;19.02;;
79074;SDS011;68476;42.710;23.388;2024-01-15T06:36:45;36.20;;;19.60;;
79074;SDS011;68476;42.710;23.388;2024-01-15T06:39:11;36.00;;;20.63;;
79074;SDS011;68476;42.710;23.388;2024-01-15T06:41:37;33.78;;;20.13;;
79074;SDS011;68476;42.710;23.388;2024-01-15T06:44:08;38.38;;;19.70;;
79074;SDS011;68476;42.710;23.388;2024-01-15T06:46:36;38.15;;;21.30;;
79074;SDS011;68476;42.710;23.388;2024-01-15T06:49:02;40.47;;;20.70;;
79074;SDS011;68476;42.710;23.388;2024-01-15T06:51:29;33.63;;;19.27;;
79074;SDS011;68476;42.710;23.388;2024-01-15T06:53:54;35.08;;;20.13;;
79074;SDS011;68476;42.710;23.388;2024-01-15T06:56:20;42.95;;;21.38;;
79074;SDS011;68476;42.710;23.388;2024-01-15T06:58:45;45.80;;;23.70;;
79074;SDS011;68476;42.710;23.388;2024-01-15T07:01:11;27.88;;;15.40;;
79074;SDS011;68476;42.710;23.388;2024-01-15T07:03:37;31.38;;;17.55;;
79074;SDS011;68476;42.710;23.388;2024-01-15T07:06:03;34.20;;;16.65;;
79074;SDS011;68476;42.710;23.388;2024-01-15T07:08:29;29.10;;;15.98;;
79074;SDS011;68476;42.710;23.388;2024-01-15T07:10:55;24.55;;;14.52;;
79074;SDS011;68476;42.710;23.388;2024-01-15T07:13:20;31.50;;;17.17;;
79074;SDS011;68476;42.710;23.388;2024-01-15T07:15:46;33.08;;;18.08;;
79074;SDS011;68476;42.710;23.388;2024-01-15T07:18:11;34.65;;;19.00;;
79074;SDS011;68476;42.710;23.388;2024-01-15T07:20:37;24.27;;;14.32;;
79074;SDS011;68476;42.710;23.388;2024-01-15T07:23:02;30.75;;;16.38;;
79074;SDS011;68476;42.710;23.388;2024-01-15T07:25:29;27.58;;;13.68;;
79074;SDS011;68476;42.710;23.388;2024-01-15T07:27:54;36.08;;;17.40;;
79074;SDS011;68476;42.710;23.388;2024-01-15T07:30:20;29.88;;;17.00;;
79074;SDS011;68476;42.710;23.388;2024-01-15T07:32:47;34.42;;;17.30;;
79074;SDS011;68476;42.710;23.388;2024-01-15T07:35:13;42.35;;;21.17;;
79074;SDS011;68476;42.710;23.388;2024-01-15T07:37:39;36.25;;;20.73;;
79074;SDS011;68476;42.710;23.388;2024-01-15T07:40:05;45.30;;;20.30;;
79074;SDS011;68476;42.710;23.388;2024-01-15T07:42:33;37.05;;;18.42;;
79074;SDS011;68476;42.710;23.388;2024-01-15T07:44:59;45.80;;;21.92;;
79074;SDS011;68476;42.710;23.388;2024-01-15T07:47:25;35.83;;;18.80;;
79074;SDS011;68476;42.710;23.388;2024-01-15T07:49:52;37.90;;;18.63;;
79074;SDS011;68476;42.710;23.388;2024-01-15T07:52:17;36.13;;;19.40;;
79074;SDS011;68476;42.710;23.388;2024-01-15T07:54:43;38.60;;;21.52;;
79074;SDS011;68476;42.710;23.388;2024-01-15T07:57:09;36.20;;;19.75;;
79074;SDS011;68476;42.710;23.388;2024-01-15T07:59:35;37.65;;;20.73;;
79074;SDS011;68476;42.710;23.388;2024-01-15T08:02:00;50.03;;;26.15;;
79074;SDS011;68476;42.710;23.388;2024-01-15T08:04:26;42.13;;;23.30;;
79074;SDS011;68476;42.710;23.388;2024-01-15T08:06:52;45.20;;;24.90;;
79074;SDS011;68476;42.710;23.388;2024-01-15T08:09:17;47.25;;;23.70;;
79074;SDS011;68476;42.710;23.388;2024-01-15T08:11:43;53.92;;;28.38;;
79074;SDS011;68476;42.710;23.388;2024-01-15T08:14:09;51.55;;;25.45;;
79074;SDS011;68476;42.710;23.388;2024-01-15T08:16:35;57.25;;;30.70;;
79074;SDS011;68476;42.710;23.388;2024-01-15T08:19:05;24.92;;;15.38;;
79074;SDS011;68476;42.710;23.388;2024-01-15T08:21:31;55.78;;;29.38;;
79074;SDS011;68476;42.710;23.388;2024-01-15T08:24:00;57.00;;;30.05;;
79074;SDS011;68476;42.710;23.388;2024-01-15T08:26:27;50.45;;;24.17;;
79074;SDS011;68476;42.710;23.388;2024-01-15T08:28:55;48.78;;;27.05;;
79074;SDS011;68476;42.710;23.388;2024-01-15T08:31:21;47.75;;;26.55;;
79074;SDS011;68476;42.710;23.388;2024-01-15T08:33:46;49.92;;;26.20;;
79074;SDS011;68476;42.710;23.388;2024-01-15T08:36:12;41.78;;;22.65;;
79074;SDS011;68476;42.710;23.388;2024-01-15T08:38:38;42.97;;;22.38;;
79074;SDS011;68476;42.710;23.388;2024-01-15T08:41:04;54.88;;;28.85;;
79074;SDS011;68476;42.710;23.388;2024-01-15T08:43:29;57.00;;;28.35;;
79074;SDS011;68476;42.710;23.388;2024-01-15T08:45:58;57.50;;;27.60;;
79074;SDS011;68476;42.710;23.388;2024-01-15T08:48:24;52.58;;;25.42;;
79074;SDS011;68476;42.710;23.388;2024-01-15T08:50:52;37.45;;;21.92;;
79074;SDS011;68476;42.710;23.388;2024-01-15T08:53:18;49.85;;;27.35;;
79074;SDS011;68476;42.710;23.388;2024-01-15T08:55:43;57.45;;;28.90;;
79074;SDS011;68476;42.710;23.388;2024-01-15T08:58:09;48.15;;;27.05;;
79074;SDS011;68476;42.710;23.388;2024-01-15T09:00:35;43.15;;;22.50;;
79074;SDS011;68476;42.710;23.388;2024-01-15T09:03:00;42.97;;;22.63;;
79074;SDS011;68476;42.710;23.388;2024-01-15T09:05:27;49.08;;;26.33;;
79074;SDS011;68476;42.710;23.388;2024-01-15T09:07:52;40.95;;;22.85;;
79074;SDS011;68476;42.710;23.388;2024-01-15T09:10:18;40.97;;;22.98;;
79074;SDS011;68476;42.710;23.388;2024-01-15T09:12:44;37.67;;;20.20;;
79074;SDS011;68476;42.710;23.388;2024-01-15T09:15:10;40.30;;;21.02;;
79074;SDS011;68476;42.710;23.388;2024-01-15T09:17:35;45.63;;;24.17;;
79074;SDS011;68476;42.710;23.388;2024-01-15T09:20:01;39.65;;;22.17;;
79074;SDS011;68476;42.710;23.388;2024-01-15T09:22:26;39.92;;;22.05;;
79074;SDS011;68476;42.710;23.388;2024-01-15T09:24:52;44.85;;;22.48;;
79074;SDS011;68476;42.710;23.388;2024-01-15T09:27:17;44.55;;;25.33;;
79074;SDS011;68476;42.710;23.388;2024-01-15T09:29:43;50.13;;;28.20;;
79074;SDS011;68476;42.710;23.388;2024-01-15T09:32:11;49.50;;;28.27;;
79074;SDS011;68476;42.710;23.388;2024-01-15T09:34:37;47.08;;;26.38;;
79074;SDS011;68476;42.710;23.388;2024-01-15T09:37:03;49.00;;;27.52;;
79074;SDS011;68476;42.710;23.388;2024-01-15T09:39:29;51.45;;;26.33;;
79074;SDS011;68476;42.710;23.388;2024-01-15T09:41:55;49.30;;;28.13;;
79074;SDS011;68476;42.710;23.388;2024-01-15T09:44:21;52.25;;;28.80;;
79074;SDS011;68476;42.710;23.388;2024-01-15T09:46:47;54.53;;;29.73;;
79074;SDS011;68476;42.710;23.388;2024-01-15T09:49:15;48.72;;;28.65;;
79074;SDS011;68476;42.710;23.388;2024-01-15T09:51:41;51.20;;;29.60;;
79074;SDS011;68476;42.710;23.388;2024-01-15T09:54:07;44.22;;;27.80;;
79074;SDS011;68476;42.710;23.388;2024-01-15T09:56:33;46.30;;;25.95;;
79074;SDS011;68476;42.710;23.388;2024-01-15T09:59:00;43.40;;;25.60;;
79074;SDS011;68476;42.710;23.388;2024-01-15T10:01:26;41.03;;;24.33;;
79074;SDS011;68476;42.710;23.388;2024-01-15T10:03:51;44.50;;;25.25;;
79074;SDS011;68476;42.710;23.388;2024-01-15T10:06:18;43.95;;;24.30;;
79074;SDS011;68476;42.710;23.388;2024-01-15T10:08:47;43.63;;;24.33;;
79074;SDS011;68476;42.710;23.388;2024-01-15T10:11:16;39.88;;;23.17;;
79074;SDS011;68476;42.710;23.388;2024-01-15T10:13:43;47.50;;;23.98;;
79074;SDS011;68476;42.710;23.388;2024-01-15T10:16:09;41.97;;;23.70;;
79074;SDS011;68476;42.710;23.388;2024-01-15T10:18:35;40.97;;;22.80;;
79074;SDS011;68476;42.710;23.388;2024-01-15T10:21:02;41.40;;;22.27;;
79074;SDS011;68476;42.710;23.388;2024-01-15T10:23:28;40.25;;;22.48;;
79074;SDS011;68476;42.710;23.388;2024-01-15T10:25:56;36.42;;;21.05;;
79074;SDS011;68476;42.710;23.388;2024-01-15T10:28:22;29.88;;;17.38;;
79074;SDS011;68476;42.710;23.388;2024-01-15T10:30:51;40.47;;;21.42;;
79074;SDS011;68476;42.710;23.388;2024-01-15T10:33:19;45.60;;;20.25;;
79074;SDS011;68476;42.710;23.388;2024-01-15T10:38:12;35.45;;;19.48;;
79074;SDS011;68476;42.710;23.388;2024-01-15T10:40:37;39.50;;;21.00;;
79074;SDS011;68476;42.710;23.388;2024-01-15T10:43:03;40.00;;;22.42;;
79074;SDS011;68476;42.710;23.388;2024-01-15T10:45:29;43.35;;;23.95;;
79074;SDS011;68476;42.710;23.388;2024-01-15T10:47:54;43.03;;;23.65;;
79074;SDS011;68476;42.710;23.388;2024-01-15T10:50:23;47.30;;;24.75;;
79074;SDS011;68476;42.710;23.388;2024-01-15T10:52:49;48.45;;;26.73;;
79074;SDS011;68476;42.710;23.388;2024-01-15T10:55:16;46.38;;;27.67;;
79074;SDS011;68476;42.710;23.388;2024-01-15T10:57:43;38.40;;;22.83;;
79074;SDS011;68476;42.710;23.388;2024-01-15T11:00:10;31.77;;;18.00;;
79074;SDS011;68476;42.710;23.388;2024-01-15T11:02:39;42.65;;;22.85;;
79074;SDS011;68476;42.710;23.388;2024-01-15T11:05:06;40.95;;;21.23;;
79074;SDS011;68476;42.710;23.388;2024-01-15T11:07:31;43.72;;;22.80;;
79074;SDS011;68476;42.710;23.388;2024-01-15T11:09:57;37.58;;;18.55;;
79074;SDS011;68476;42.710;23.388;2024-01-15T11:12:24;38.40;;;22.08;;
79074;SDS011;68476;42.710;23.388;2024-01-15T11:14:49;39.70;;;22.58;;
79074;SDS011;68476;42.710;23.388;2024-01-15T11:17:16;23.42;;;13.68;;
79074;SDS011;68476;42.710;23.388;2024-01-15T11:19:47;38.53;;;23.88;;
79074;SDS011;68476;42.710;23.388;2024-01-15T11:24:56;37.47;;;21.23;;
79074;SDS011;68476;42.710;23.388;2024-01-15T11:27:46;45.63;;;24.13;;
79074;SDS011;68476;42.710;23.388;2024-01-15T11:30:16;52.67;;;28.30;;
79074;SDS011;68476;42.710;23.388;2024-01-15T11:32:42;43.13;;;25.60;;
79074;SDS011;68476;42.710;23.388;2024-01-15T11:35:08;45.65;;;26.30;;
79074;SDS011;68476;42.710;23.388;2024-01-15T11:40:19;45.72;;;24.55;;
79074;SDS011;68476;42.710;23.388;2024-01-15T11:42:48;44.67;;;23.88;;
79074;SDS011;68476;42.710;23.388;2024-01-15T11:45:20;46.47;;;25.20;;
79074;SDS011;68476;42.710;23.388;2024-01-15T11:48:05;51.88;;;26.80;;
79074;SDS011;68476;42.710;23.388;2024-01-15T11:50:39;52.00;;;26.83;;
79074;SDS011;68476;42.710;23.388;2024-01-15T11:53:16;56.03;;;27.48;;
79074;SDS011;68476;42.710;23.388;2024-01-15T11:55:46;48.53;;;25.10;;
79074;SDS011;68476;42.710;23.388;2024-01-15T11:58:13;48.45;;;26.40;;
79074;SDS011;68476;42.710;23.388;2024-01-15T12:00:40;37.80;;;22.52;;
79074;SDS011;68476;42.710;23.388;2024-01-15T12:03:08;50.08;;;25.67;;
79074;SDS011;68476;42.710;23.388;2024-01-15T12:05:36;50.33;;;28.08;;
79074;SDS011;68476;42.710;23.388;2024-01-15T12:08:02;55.83;;;29.00;;
79074;SDS011;68476;42.710;23.388;2024-01-15T12:10:28;54.75;;;27.05;;
79074;SDS011;68476;42.710;23.388;2024-01-15T12:12:58;52.80;;;27.50;;
79074;SDS011;68476;42.710;23.388;2024-01-15T12:15:37;48.40;;;26.90;;
79074;SDS011;68476;42.710;23.388;2024-01-15T12:18:06;43.67;;;24.63;;
79074;SDS011;68476;42.710;23.388;2024-01-15T12:20:33;50.10;;;25.23;;
79074;SDS011;68476;42.710;23.388;2024-01-15T12:22:59;50.45;;;26.38;;
79074;SDS011;68476;42.710;23.388;2024-01-15T12:25:25;50.28;;;27.25;;
79074;SDS011;68476;42.710;23.388;2024-01-15T12:27:52;47.33;;;26.73;;
79074;SDS011;68476;42.710;23.388;2024-01-15T12:30:18;52.55;;;28.73;;
79074;SDS011;68476;42.710;23.388;2024-01-15T12:32:45;54.83;;;26.38;;
79074;SDS011;68476;42.710;23.388;2024-01-15T12:35:12;53.20;;;26.67;;
79074;SDS011;68476;42.710;23.388;2024-01-15T12:37:42;53.03;;;27.20;;
79074;SDS011;68476;42.710;23.388;2024-01-15T12:40:08;51.60;;;25.58;;
79074;SDS011;68476;42.710;23.388;2024-01-15T12:42:39;54.28;;;26.08;;
79074;SDS011;68476;42.710;23.388;2024-01-15T12:45:05;54.90;;;26.85;;
79074;SDS011;68476;42.710;23.388;2024-01-15T12:47:32;47.45;;;25.90;;
79074;SDS011;68476;42.710;23.388;2024-01-15T12:49:58;47.85;;;26.65;;
79074;SDS011;68476;42.710;23.388;2024-01-15T12:52:26;41.40;;;23.73;;
79074;SDS011;68476;42.710;23.388;2024-01-15T12:54:52;50.53;;;26.05;;
79074;SDS011;68476;42.710;23.388;2024-01-15T12:57:18;59.15;;;32.28;;
79074;SDS011;68476;42.710;23.388;2024-01-15T12:59:44;62.95;;;33.10;;
79074;SDS011;68476;42.710;23.388;2024-01-15T13:02:13;59.55;;;32.70;;
79074;SDS011;68476;42.710;23.388;2024-01-15T13:04:38;58.40;;;29.75;;
79074;SDS011;68476;42.710;23.388;2024-01-15T13:07:05;59.40;;;32.90;;
79074;SDS011;68476;42.710;23.388;2024-01-15T13:09:31;70.28;;;33.45;;
79074;SDS011;68476;42.710;23.388;2024-01-15T13:11:56;59.72;;;29.42;;
79074;SDS011;68476;42.710;23.388;2024-01-15T13:14:22;60.80;;;35.00;;
79074;SDS011;68476;42.710;23.388;2024-01-15T13:16:48;77.60;;;38.13;;
79074;SDS011;68476;42.710;23.388;2024-01-15T13:19:13;76.72;;;37.00;;
79074;SDS011;68476;42.710;23.388;2024-01-15T13:21:42;70.45;;;34.28;;
79074;SDS011;68476;42.710;23.388;2024-01-15T13:24:08;70.25;;;37.80;;
79074;SDS011;68476;42.710;23.388;2024-01-15T13:26:34;72.93;;;36.85;;
79074;SDS011;68476;42.710;23.388;2024-01-15T13:29:03;68.40;;;35.35;;
79074;SDS011;68476;42.710;23.388;2024-01-15T13:31:32;75.53;;;36.17;;
79074;SDS011;68476;42.710;23.388;2024-01-15T13:33:58;69.53;;;35.85;;
79074;SDS011;68476;42.710;23.388;2024-01-15T13:36:24;70.40;;;37.10;;
79074;SDS011;68476;42.710;23.388;2024-01-15T13:38:50;72.97;;;34.80;;
79074;SDS011;68476;42.710;23.388;2024-01-15T13:41:18;48.60;;;23.90;;
79074;SDS011;68476;42.710;23.388;2024-01-15T13:43:54;61.20;;;31.45;;
79074;SDS011;68476;42.710;23.388;2024-01-15T13:46:20;60.13;;;32.30;;
79074;SDS011;68476;42.710;23.388;2024-01-15T13:48:48;64.22;;;32.20;;
79074;SDS011;68476;42.710;23.388;2024-01-15T13:51:14;68.90;;;32.30;;
79074;SDS011;68476;42.710;23.388;2024-01-15T13:53:39;65.72;;;30.33;;
79074;SDS011;68476;42.710;23.388;2024-01-15T13:56:05;54.22;;;28.65;;
79074;SDS011;68476;42.710;23.388;2024-01-15T13:58:31;56.70;;;27.55;;
79074;SDS011;68476;42.710;23.388;2024-01-15T14:00:58;78.82;;;37.60;;
79074;SDS011;68476;42.710;23.388;2024-01-15T14:03:24;70.63;;;37.53;;
79074;SDS011;68476;42.710;23.388;2024-01-15T14:05:50;70.57;;;36.28;;
79074;SDS011;68476;42.710;23.388;2024-01-15T14:08:16;65.70;;;34.38;;
79074;SDS011;68476;42.710;23.388;2024-01-15T14:10:42;78.55;;;40.92;;